sensor_id;sensor_type;location;lat;lon;timestamp;P1;durP1;ratioP1;P2;durP2;ratioP2
8100;SDS011;4093;53.470;9.832;2022-07-24T00:00:34;3.50;;;3.20;;
8100;SDS011;4093;53.470;9.832;2022-07-24T00:03:01;4.50;;;3.17;;
8100;SDS011;4093;53.470;9.832;2022-07-24T00:05:27;4.00;;;3.70;;
8100;SDS011;4093;53.470;9.832;2022-07-24T00:07:54;4.90;;;3.60;;
8100;SDS011;4093;53.470;9.832;2022-07-24T00:10:21;5.03;;;3.63;;
8100;SDS011;4093;53.470;9.832;2022-07-24T00:12:49;5.93;;;3.80;;
8100;SDS011;4093;53.470;9.832;2022-07-24T00:15:16;4.07;;;3.67;;
8100;SDS011;4093;53.470;9.832;2022-07-24T00:17:42;4.43;;;4.03;;
8100;SDS011;4093;53.470;9.832;2022-07-24T00:20:10;6.17;;;3.90;;
8100;SDS011;4093;53.470;9.832;2022-07-24T00:22:37;4.87;;;3.90;;
8100;SDS011;4093;53.470;9.832;2022-07-24T00:25:03;4.77;;;3.57;;
8100;SDS011;4093;53.470;9.832;2022-07-24T00:27:30;4.70;;;3.73;;
8100;SDS011;4093;53.470;9.832;2022-07-24T00:29:58;4.70;;;3.70;;
8100;SDS011;4093;53.470;9.832;2022-07-24T00:32:25;4.37;;;3.90;;
8100;SDS011;4093;53.470;9.832;2022-07-24T00:34:51;5.73;;;3.90;;
8100;SDS011;4093;53.470;9.832;2022-07-24T00:37:18;4.43;;;3.87;;
8100;SDS011;4093;53.470;9.832;2022-07-24T00:39:45;7.40;;;4.07;;
8100;SDS011;4093;53.470;9.832;2022-07-24T00:42:12;4.00;;;3.60;;
8100;SDS011;4093;53.470;9.832;2022-07-24T00:44:39;4.03;;;3.70;;
8100;SDS011;4093;53.470;9.832;2022-07-24T00:47:07;4.73;;;4.03;;
8100;SDS011;4093;53.470;9.832;2022-07-24T00:49:33;5.73;;;3.53;;
8100;SDS011;4093;53.470;9.832;2022-07-24T00:52:00;4.23;;;3.43;;
8100;SDS011;4093;53.470;9.832;2022-07-24T00:54:27;3.83;;;3.43;;
8100;SDS011;4093;53.470;9.832;2022-07-24T00:56:53;3.90;;;3.60;;
8100;SDS011;4093;53.470;9.832;2022-07-24T00:59:20;5.03;;;4.07;;
8100;SDS011;4093;53.470;9.832;2022-07-24T01:01:48;4.30;;;3.93;;
8100;SDS011;4093;53.470;9.832;2022-07-24T01:04:17;4.10;;;3.70;;
8100;SDS011;4093;53.470;9.832;2022-07-24T01:06:44;5.17;;;4.00;;
8100;SDS011;4093;53.470;9.832;2022-07-24T01:09:12;4.20;;;3.90;;
8100;SDS011;4093;53.470;9.832;2022-07-24T01:11:39;5.97;;;3.80;;
8100;SDS011;4093;53.470;9.832;2022-07-24T01:14:06;4.30;;;3.60;;
8100;SDS011;4093;53.470;9.832;2022-07-24T01:16:33;4.33;;;3.80;;
8100;SDS011;4093;53.470;9.832;2022-07-24T01:19:00;3.93;;;3.47;;
8100;SDS011;4093;53.470;9.832;2022-07-24T01:21:27;3.73;;;3.43;;
8100;SDS011;4093;53.470;9.832;2022-07-24T01:23:54;5.70;;;3.60;;
8100;SDS011;4093;53.470;9.832;2022-07-24T01:26:21;4.07;;;3.60;;
8100;SDS011;4093;53.470;9.832;2022-07-24T01:28:47;4.10;;;3.80;;
8100;SDS011;4093;53.470;9.832;2022-07-24T01:31:14;5.20;;;4.57;;
8100;SDS011;4093;53.470;9.832;2022-07-24T01:33:40;4.10;;;3.70;;
8100;SDS011;4093;53.470;9.832;2022-07-24T01:36:07;4.07;;;3.70;;
8100;SDS011;4093;53.470;9.832;2022-07-24T01:38:35;3.83;;;3.53;;
8100;SDS011;4093;53.470;9.832;2022-07-24T01:41:03;6.43;;;3.90;;
8100;SDS011;4093;53.470;9.832;2022-07-24T01:43:30;4.67;;;3.63;;
8100;SDS011;4093;53.470;9.832;2022-07-24T01:45:56;3.73;;;3.30;;
8100;SDS011;4093;53.470;9.832;2022-07-24T01:48:23;4.03;;;3.60;;
8100;SDS011;4093;53.470;9.832;2022-07-24T01:50:50;3.97;;;3.50;;
8100;SDS011;4093;53.470;9.832;2022-07-24T01:53:16;3.80;;;3.50;;
8100;SDS011;4093;53.470;9.832;2022-07-24T01:55:44;4.30;;;3.60;;
8100;SDS011;4093;53.470;9.832;2022-07-24T01:58:11;3.70;;;3.40;;
8100;SDS011;4093;53.470;9.832;2022-07-24T02:00:37;3.97;;;3.47;;
8100;SDS011;4093;53.470;9.832;2022-07-24T02:03:04;4.57;;;3.60;;
8100;SDS011;4093;53.470;9.832;2022-07-24T02:05:31;3.70;;;3.40;;
8100;SDS011;4093;53.470;9.832;2022-07-24T02:07:58;3.67;;;3.37;;
8100;SDS011;4093;53.470;9.832;2022-07-24T02:10:26;3.67;;;3.37;;
8100;SDS011;4093;53.470;9.832;2022-07-24T02:12:55;4.00;;;3.47;;
8100;SDS011;4093;53.470;9.832;2022-07-24T02:15:22;3.73;;;3.30;;
8100;SDS011;4093;53.470;9.832;2022-07-24T02:17:50;3.70;;;3.40;;
8100;SDS011;4093;53.470;9.832;2022-07-24T02:20:18;3.77;;;3.23;;
8100;SDS011;4093;53.470;9.832;2022-07-24T02:22:45;3.60;;;3.30;;
8100;SDS011;4093;53.470;9.832;2022-07-24T02:25:12;4.90;;;3.30;;
8100;SDS011;4093;53.470;9.832;2022-07-24T02:27:39;4.77;;;3.70;;
8100;SDS011;4093;53.470;9.832;2022-07-24T02:30:09;3.43;;;3.13;;
8100;SDS011;4093;53.470;9.832;2022-07-24T02:32:37;3.90;;;3.30;;
8100;SDS011;4093;53.470;9.832;2022-07-24T02:35:04;3.50;;;3.20;;
8100;SDS011;4093;53.470;9.832;2022-07-24T02:37:32;4.07;;;3.33;;
8100;SDS011;4093;53.470;9.832;2022-07-24T02:40:00;3.37;;;3.07;;
8100;SDS011;4093;53.470;9.832;2022-07-24T02:42:27;3.80;;;3.50;;
8100;SDS011;4093;53.470;9.832;2022-07-24T02:44:53;3.00;;;2.80;;
8100;SDS011;4093;53.470;9.832;2022-07-24T02:47:21;4.03;;;3.10;;
8100;SDS011;4093;53.470;9.832;2022-07-24T02:49:48;4.57;;;3.37;;
8100;SDS011;4093;53.470;9.832;2022-07-24T02:52:15;3.20;;;3.00;;
8100;SDS011;4093;53.470;9.832;2022-07-24T02:54:41;4.30;;;3.00;;
8100;SDS011;4093;53.470;9.832;2022-07-24T02:57:08;2.97;;;2.77;;
8100;SDS011;4093;53.470;9.832;2022-07-24T02:59:34;3.50;;;2.87;;
8100;SDS011;4093;53.470;9.832;2022-07-24T03:02:01;3.40;;;3.10;;
8100;SDS011;4093;53.470;9.832;2022-07-24T03:04:29;3.57;;;3.27;;
8100;SDS011;4093;53.470;9.832;2022-07-24T03:06:55;3.60;;;3.30;;
8100;SDS011;4093;53.470;9.832;2022-07-24T03:09:22;3.43;;;3.20;;
8100;SDS011;4093;53.470;9.832;2022-07-24T03:11:49;3.63;;;3.33;;
8100;SDS011;4093;53.470;9.832;2022-07-24T03:14:15;5.40;;;3.47;;
8100;SDS011;4093;53.470;9.832;2022-07-24T03:16:42;4.00;;;3.53;;
8100;SDS011;4093;53.470;9.832;2022-07-24T03:19:08;3.73;;;3.43;;
8100;SDS011;4093;53.470;9.832;2022-07-24T03:21:36;3.90;;;3.50;;
8100;SDS011;4093;53.470;9.832;2022-07-24T03:24:03;4.13;;;3.60;;
8100;SDS011;4093;53.470;9.832;2022-07-24T03:26:30;3.57;;;3.27;;
8100;SDS011;4093;53.470;9.832;2022-07-24T03:28:56;3.60;;;3.30;;
8100;SDS011;4093;53.470;9.832;2022-07-24T03:31:23;4.00;;;3.37;;
8100;SDS011;4093;53.470;9.832;2022-07-24T03:33:49;4.50;;;4.10;;
8100;SDS011;4093;53.470;9.832;2022-07-24T03:36:16;4.93;;;3.67;;
8100;SDS011;4093;53.470;9.832;2022-07-24T03:38:44;4.03;;;3.70;;
8100;SDS011;4093;53.470;9.832;2022-07-24T03:41:10;3.70;;;3.40;;
8100;SDS011;4093;53.470;9.832;2022-07-24T03:43:37;3.97;;;3.57;;
8100;SDS011;4093;53.470;9.832;2022-07-24T03:46:04;3.93;;;3.20;;
8100;SDS011;4093;53.470;9.832;2022-07-24T03:48:30;4.57;;;3.90;;
8100;SDS011;4093;53.470;9.832;2022-07-24T03:50:57;3.90;;;3.37;;
8100;SDS011;4093;53.470;9.832;2022-07-24T03:53:24;3.87;;;3.53;;
8100;SDS011;4093;53.470;9.832;2022-07-24T03:55:52;5.13;;;3.83;;
8100;SDS011;4093;53.470;9.832;2022-07-24T03:58:18;3.80;;;3.50;;
8100;SDS011;4093;53.470;9.832;2022-07-24T04:00:45;4.03;;;3.63;;
8100;SDS011;4093;53.470;9.832;2022-07-24T04:03:11;4.87;;;3.20;;
8100;SDS011;4093;53.470;9.832;2022-07-24T04:05:38;3.63;;;3.33;;
8100;SDS011;4093;53.470;9.832;2022-07-24T04:08:05;3.70;;;3.40;;
8100;SDS011;4093;53.470;9.832;2022-07-24T04:10:31;4.00;;;3.70;;
8100;SDS011;4093;53.470;9.832;2022-07-24T04:12:59;5.40;;;3.80;;
8100;SDS011;4093;53.470;9.832;2022-07-24T04:15:26;5.33;;;3.93;;
8100;SDS011;4093;53.470;9.832;2022-07-24T04:17:52;4.13;;;3.30;;
8100;SDS011;4093;53.470;9.832;2022-07-24T04:20:19;3.63;;;3.20;;
8100;SDS011;4093;53.470;9.832;2022-07-24T04:22:46;3.60;;;3.10;;
8100;SDS011;4093;53.470;9.832;2022-07-24T04:25:12;3.57;;;3.27;;
8100;SDS011;4093;53.470;9.832;2022-07-24T04:27:39;3.77;;;3.00;;
8100;SDS011;4093;53.470;9.832;2022-07-24T04:30:08;5.00;;;3.37;;
8100;SDS011;4093;53.470;9.832;2022-07-24T04:32:35;3.70;;;3.40;;
8100;SDS011;4093;53.470;9.832;2022-07-24T04:35:02;4.70;;;4.30;;
8100;SDS011;4093;53.470;9.832;2022-07-24T04:37:28;3.93;;;3.63;;
8100;SDS011;4093;53.470;9.832;2022-07-24T04:39:55;3.93;;;3.57;;
8100;SDS011;4093;53.470;9.832;2022-07-24T04:42:21;3.70;;;3.13;;
8100;SDS011;4093;53.470;9.832;2022-07-24T04:44:48;6.17;;;3.37;;
8100;SDS011;4093;53.470;9.832;2022-07-24T04:47:16;3.73;;;3.20;;
8100;SDS011;4093;53.470;9.832;2022-07-24T04:49:43;3.10;;;2.80;;
8100;SDS011;4093;53.470;9.832;2022-07-24T04:52:09;3.57;;;3.27;;
8100;SDS011;4093;53.470;9.832;2022-07-24T04:54:36;3.43;;;2.90;;
8100;SDS011;4093;53.470;9.832;2022-07-24T04:57:02;5.87;;;3.50;;
8100;SDS011;4093;53.470;9.832;2022-07-24T04:59:29;4.40;;;3.60;;
8100;SDS011;4093;53.470;9.832;2022-07-24T05:01:56;4.53;;;3.43;;
8100;SDS011;4093;53.470;9.832;2022-07-24T05:04:23;4.57;;;3.30;;
8100;SDS011;4093;53.470;9.832;2022-07-24T05:06:50;3.70;;;3.40;;
8100;SDS011;4093;53.470;9.832;2022-07-24T05:09:17;3.43;;;3.13;;
8100;SDS011;4093;53.470;9.832;2022-07-24T05:11:43;6.23;;;3.57;;
8100;SDS011;4093;53.470;9.832;2022-07-24T05:14:10;3.03;;;2.73;;
8100;SDS011;4093;53.470;9.832;2022-07-24T05:16:36;2.70;;;2.50;;
8100;SDS011;4093;53.470;9.832;2022-07-24T05:19:03;6.13;;;2.38;;
8100;SDS011;4093;53.470;9.832;2022-07-24T05:21:31;2.80;;;2.03;;
8100;SDS011;4093;53.470;9.832;2022-07-24T05:23:58;2.40;;;1.98;;
8100;SDS011;4093;53.470;9.832;2022-07-24T05:26:26;2.28;;;2.05;;
8100;SDS011;4093;53.470;9.832;2022-07-24T05:28:53;2.05;;;1.95;;
8100;SDS011;4093;53.470;9.832;2022-07-24T05:31:19;2.25;;;1.60;;
8100;SDS011;4093;53.470;9.832;2022-07-24T05:33:46;1.83;;;1.73;;
8100;SDS011;4093;53.470;9.832;2022-07-24T05:36:12;1.65;;;1.55;;
8100;SDS011;4093;53.470;9.832;2022-07-24T05:38:40;3.15;;;1.75;;
8100;SDS011;4093;53.470;9.832;2022-07-24T05:41:08;1.67;;;1.45;;
8100;SDS011;4093;53.470;9.832;2022-07-24T05:43:35;2.65;;;1.88;;
8100;SDS011;4093;53.470;9.832;2022-07-24T05:46:02;2.00;;;1.70;;
8100;SDS011;4093;53.470;9.832;2022-07-24T05:48:29;2.75;;;1.80;;
8100;SDS011;4093;53.470;9.832;2022-07-24T05:50:56;1.67;;;1.58;;
8100;SDS011;4093;53.470;9.832;2022-07-24T05:53:23;2.83;;;1.67;;
8100;SDS011;4093;53.470;9.832;2022-07-24T05:55:51;1.70;;;1.60;;
8100;SDS011;4093;53.470;9.832;2022-07-24T05:58:18;2.10;;;1.45;;
8100;SDS011;4093;53.470;9.832;2022-07-24T06:00:45;2.70;;;1.73;;
8100;SDS011;4093;53.470;9.832;2022-07-24T06:03:12;3.20;;;1.80;;
8100;SDS011;4093;53.470;9.832;2022-07-24T06:05:39;2.85;;;1.60;;
8100;SDS011;4093;53.470;9.832;2022-07-24T06:08:05;2.28;;;1.70;;
8100;SDS011;4093;53.470;9.832;2022-07-24T06:10:33;2.80;;;1.75;;
8100;SDS011;4093;53.470;9.832;2022-07-24T06:13:02;2.13;;;1.92;;
8100;SDS011;4093;53.470;9.832;2022-07-24T06:15:28;4.90;;;1.98;;
8100;SDS011;4093;53.470;9.832;2022-07-24T06:17:55;2.90;;;2.10;;
8100;SDS011;4093;53.470;9.832;2022-07-24T06:20:21;2.63;;;1.90;;
8100;SDS011;4093;53.470;9.832;2022-07-24T06:22:48;2.00;;;1.80;;
8100;SDS011;4093;53.470;9.832;2022-07-24T06:25:15;2.38;;;1.80;;
8100;SDS011;4093;53.470;9.832;2022-07-24T06:27:42;3.97;;;2.00;;
8100;SDS011;4093;53.470;9.832;2022-07-24T06:30:13;2.08;;;1.73;;
8100;SDS011;4093;53.470;9.832;2022-07-24T06:32:41;4.50;;;2.00;;
8100;SDS011;4093;53.470;9.832;2022-07-24T06:35:08;2.58;;;1.75;;
8100;SDS011;4093;53.470;9.832;2022-07-24T06:37:35;2.20;;;2.00;;
8100;SDS011;4093;53.470;9.832;2022-07-24T06:40:02;1.95;;;1.85;;
8100;SDS011;4093;53.470;9.832;2022-07-24T06:42:29;2.13;;;1.77;;
8100;SDS011;4093;53.470;9.832;2022-07-24T06:44:56;2.05;;;1.83;;
8100;SDS011;4093;53.470;9.832;2022-07-24T06:47:24;2.10;;;1.90;;
8100;SDS011;4093;53.470;9.832;2022-07-24T06:49:51;3.90;;;2.05;;
8100;SDS011;4093;53.470;9.832;2022-07-24T06:52:18;2.42;;;1.90;;
8100;SDS011;4093;53.470;9.832;2022-07-24T06:54:44;3.45;;;1.90;;
8100;SDS011;4093;53.470;9.832;2022-07-24T06:57:11;2.90;;;1.80;;
8100;SDS011;4093;53.470;9.832;2022-07-24T06:59:38;2.33;;;1.92;;
8100;SDS011;4093;53.470;9.832;2022-07-24T07:02:05;1.90;;;1.77;;
8100;SDS011;4093;53.470;9.832;2022-07-24T07:04:33;1.77;;;1.67;;
8100;SDS011;4093;53.470;9.832;2022-07-24T07:06:59;2.08;;;1.90;;
8100;SDS011;4093;53.470;9.832;2022-07-24T07:09:26;2.22;;;1.83;;
8100;SDS011;4093;53.470;9.832;2022-07-24T07:11:53;2.53;;;1.65;;
8100;SDS011;4093;53.470;9.832;2022-07-24T07:14:20;2.90;;;2.00;;
8100;SDS011;4093;53.470;9.832;2022-07-24T07:16:46;1.85;;;1.75;;
8100;SDS011;4093;53.470;9.832;2022-07-24T07:19:13;2.47;;;2.00;;
8100;SDS011;4093;53.470;9.832;2022-07-24T07:21:41;2.78;;;2.10;;
8100;SDS011;4093;53.470;9.832;2022-07-24T07:24:08;1.88;;;1.70;;
8100;SDS011;4093;53.470;9.832;2022-07-24T07:26:34;2.13;;;2.00;;
8100;SDS011;4093;53.470;9.832;2022-07-24T07:29:01;2.00;;;1.90;;
8100;SDS011;4093;53.470;9.832;2022-07-24T07:31:29;2.65;;;2.13;;
8100;SDS011;4093;53.470;9.832;2022-07-24T07:33:56;1.73;;;1.63;;
8100;SDS011;4093;53.470;9.832;2022-07-24T07:36:23;2.15;;;1.98;;
8100;SDS011;4093;53.470;9.832;2022-07-24T07:38:51;3.33;;;2.28;;
8100;SDS011;4093;53.470;9.832;2022-07-24T07:41:18;2.97;;;2.30;;
8100;SDS011;4093;53.470;9.832;2022-07-24T07:43:44;2.58;;;2.10;;
8100;SDS011;4093;53.470;9.832;2022-07-24T07:46:12;2.67;;;2.10;;
8100;SDS011;4093;53.470;9.832;2022-07-24T07:48:38;3.33;;;1.90;;
8100;SDS011;4093;53.470;9.832;2022-07-24T07:51:05;2.30;;;2.03;;
8100;SDS011;4093;53.470;9.832;2022-07-24T07:53:32;3.22;;;2.20;;
8100;SDS011;4093;53.470;9.832;2022-07-24T07:56:00;2.53;;;2.28;;
8100;SDS011;4093;53.470;9.832;2022-07-24T07:58:27;3.08;;;2.42;;
8100;SDS011;4093;53.470;9.832;2022-07-24T08:00:54;2.47;;;2.28;;
8100;SDS011;4093;53.470;9.832;2022-07-24T08:03:20;2.30;;;2.20;;
8100;SDS011;4093;53.470;9.832;2022-07-24T08:05:47;2.53;;;2.20;;
8100;SDS011;4093;53.470;9.832;2022-07-24T08:08:13;2.40;;;2.20;;
8100;SDS011;4093;53.470;9.832;2022-07-24T08:10:40;2.40;;;2.10;;
8100;SDS011;4093;53.470;9.832;2022-07-24T08:13:08;3.72;;;2.22;;
8100;SDS011;4093;53.470;9.832;2022-07-24T08:15:36;2.10;;;1.90;;
8100;SDS011;4093;53.470;9.832;2022-07-24T08:18:03;2.95;;;2.13;;
8100;SDS011;4093;53.470;9.832;2022-07-24T08:20:29;2.42;;;2.22;;
8100;SDS011;4093;53.470;9.832;2022-07-24T08:22:56;2.42;;;2.17;;
8100;SDS011;4093;53.470;9.832;2022-07-24T08:25:23;3.65;;;2.30;;
8100;SDS011;4093;53.470;9.832;2022-07-24T08:27:49;4.50;;;2.50;;
8100;SDS011;4093;53.470;9.832;2022-07-24T08:30:17;2.65;;;2.45;;
8100;SDS011;4093;53.470;9.832;2022-07-24T08:32:45;2.60;;;2.22;;
8100;SDS011;4093;53.470;9.832;2022-07-24T08:35:12;4.38;;;2.40;;
8100;SDS011;4093;53.470;9.832;2022-07-24T08:37:40;2.55;;;2.35;;
8100;SDS011;4093;53.470;9.832;2022-07-24T08:40:08;2.72;;;2.40;;
8100;SDS011;4093;53.470;9.832;2022-07-24T08:42:36;5.75;;;2.60;;
8100;SDS011;4093;53.470;9.832;2022-07-24T08:45:03;2.60;;;2.40;;
8100;SDS011;4093;53.470;9.832;2022-07-24T08:47:31;3.90;;;2.53;;
8100;SDS011;4093;53.470;9.832;2022-07-24T08:49:58;3.13;;;2.45;;
8100;SDS011;4093;53.470;9.832;2022-07-24T08:52:26;2.72;;;2.40;;
8100;SDS011;4093;53.470;9.832;2022-07-24T08:54:53;2.95;;;2.20;;
8100;SDS011;4093;53.470;9.832;2022-07-24T08:57:20;4.57;;;2.63;;
8100;SDS011;4093;53.470;9.832;2022-07-24T08:59:47;4.03;;;2.50;;
8100;SDS011;4093;53.470;9.832;2022-07-24T09:02:14;3.92;;;2.47;;
8100;SDS011;4093;53.470;9.832;2022-07-24T09:04:43;3.13;;;2.83;;
8100;SDS011;4093;53.470;9.832;2022-07-24T09:07:11;4.00;;;2.85;;
8100;SDS011;4093;53.470;9.832;2022-07-24T09:09:39;4.10;;;2.58;;
8100;SDS011;4093;53.470;9.832;2022-07-24T09:12:08;3.65;;;2.90;;
8100;SDS011;4093;53.470;9.832;2022-07-24T09:14:38;3.60;;;3.10;;
8100;SDS011;4093;53.470;9.832;2022-07-24T09:17:06;5.40;;;2.78;;
8100;SDS011;4093;53.470;9.832;2022-07-24T09:19:52;4.07;;;2.83;;
8100;SDS011;4093;53.470;9.832;2022-07-24T09:22:23;4.57;;;2.90;;
8100;SDS011;4093;53.470;9.832;2022-07-24T09:25:03;5.28;;;2.97;;
8100;SDS011;4093;53.470;9.832;2022-07-24T09:27:35;5.10;;;2.92;;
8100;SDS011;4093;53.470;9.832;2022-07-24T09:30:03;4.20;;;2.90;;
8100;SDS011;4093;53.470;9.832;2022-07-24T09:32:31;3.75;;;2.90;;
8100;SDS011;4093;53.470;9.832;2022-07-24T09:34:59;3.55;;;2.88;;
8100;SDS011;4093;53.470;9.832;2022-07-24T09:37:26;3.95;;;2.78;;
8100;SDS011;4093;53.470;9.832;2022-07-24T09:39:53;3.78;;;3.30;;
8100;SDS011;4093;53.470;9.832;2022-07-24T09:42:32;3.65;;;3.17;;
8100;SDS011;4093;53.470;9.832;2022-07-24T09:45:04;3.33;;;3.03;;
8100;SDS011;4093;53.470;9.832;2022-07-24T09:47:33;4.10;;;3.25;;
8100;SDS011;4093;53.470;9.832;2022-07-24T09:50:12;4.03;;;3.20;;
8100;SDS011;4093;53.470;9.832;2022-07-24T09:52:40;3.95;;;3.00;;
8100;SDS011;4093;53.470;9.832;2022-07-24T09:55:18;5.40;;;3.30;;
8100;SDS011;4093;53.470;9.832;2022-07-24T09:57:46;4.03;;;3.13;;
8100;SDS011;4093;53.470;9.832;2022-07-24T10:00:13;3.72;;;3.35;;
8100;SDS011;4093;53.470;9.832;2022-07-24T10:02:41;4.45;;;3.00;;
8100;SDS011;4093;53.470;9.832;2022-07-24T10:05:12;3.55;;;3.25;;
8100;SDS011;4093;53.470;9.832;2022-07-24T10:07:40;4.55;;;3.53;;
8100;SDS011;4093;53.470;9.832;2022-07-24T10:10:08;6.90;;;3.40;;
8100;SDS011;4093;53.470;9.832;2022-07-24T10:12:35;5.45;;;3.60;;
8100;SDS011;4093;53.470;9.832;2022-07-24T10:15:03;4.05;;;3.10;;
8100;SDS011;4093;53.470;9.832;2022-07-24T10:17:33;4.40;;;3.95;;
8100;SDS011;4093;53.470;9.832;2022-07-24T10:20:20;4.10;;;3.55;;
8100;SDS011;4093;53.470;9.832;2022-07-24T10:22:57;8.98;;;3.75;;
8100;SDS011;4093;53.470;9.832;2022-07-24T10:25:27;3.88;;;3.55;;
8100;SDS011;4093;53.470;9.832;2022-07-24T10:27:56;4.28;;;3.83;;
8100;SDS011;4093;53.470;9.832;2022-07-24T10:30:28;4.72;;;4.15;;
8100;SDS011;4093;53.470;9.832;2022-07-24T10:32:55;6.72;;;4.60;;
8100;SDS011;4093;53.470;9.832;2022-07-24T10:35:24;4.53;;;4.13;;
8100;SDS011;4093;53.470;9.832;2022-07-24T10:37:58;4.28;;;3.88;;
8100;SDS011;4093;53.470;9.832;2022-07-24T10:40:33;4.15;;;3.83;;
8100;SDS011;4093;53.470;9.832;2022-07-24T10:43:10;4.95;;;4.28;;
8100;SDS011;4093;53.470;9.832;2022-07-24T10:45:38;4.70;;;4.30;;
8100;SDS011;4093;53.470;9.832;2022-07-24T10:48:27;5.75;;;4.35;;
8100;SDS011;4093;53.470;9.832;2022-07-24T10:51:00;6.30;;;4.65;;
8100;SDS011;4093;53.470;9.832;2022-07-24T10:53:35;5.47;;;4.70;;
8100;SDS011;4093;53.470;9.832;2022-07-24T10:56:14;4.07;;;3.67;;
8100;SDS011;4093;53.470;9.832;2022-07-24T10:58:50;5.75;;;4.47;;
8100;SDS011;4093;53.470;9.832;2022-07-24T11:01:28;4.47;;;4.07;;
8100;SDS011;4093;53.470;9.832;2022-07-24T11:03:57;8.20;;;5.05;;
8100;SDS011;4093;53.470;9.832;2022-07-24T11:09:08;5.05;;;4.15;;
8100;SDS011;4093;53.470;9.832;2022-07-24T11:11:39;4.43;;;4.07;;
8100;SDS011;4093;53.470;9.832;2022-07-24T11:14:07;5.93;;;4.10;;
8100;SDS011;4093;53.470;9.832;2022-07-24T11:16:34;5.53;;;4.22;;
8100;SDS011;4093;53.470;9.832;2022-07-24T11:22:11;5.32;;;4.38;;
8100;SDS011;4093;53.470;9.832;2022-07-24T11:24:41;8.05;;;4.40;;
8100;SDS011;4093;53.470;9.832;2022-07-24T11:27:23;4.50;;;4.10;;
8100;SDS011;4093;53.470;9.832;2022-07-24T11:29:51;5.18;;;4.32;;
8100;SDS011;4093;53.470;9.832;2022-07-24T11:32:20;5.38;;;4.88;;
8100;SDS011;4093;53.470;9.832;2022-07-24T11:34:47;5.82;;;4.70;;
8100;SDS011;4093;53.470;9.832;2022-07-24T11:37:17;6.65;;;4.50;;
8100;SDS011;4093;53.470;9.832;2022-07-24T11:39:44;4.55;;;4.15;;
8100;SDS011;4093;53.470;9.832;2022-07-24T11:42:12;8.00;;;5.22;;
8100;SDS011;4093;53.470;9.832;2022-07-24T11:44:41;6.25;;;4.88;;
8100;SDS011;4093;53.470;9.832;2022-07-24T11:47:09;6.10;;;4.68;;
8100;SDS011;4093;53.470;9.832;2022-07-24T11:49:39;4.90;;;4.25;;
8100;SDS011;4093;53.470;9.832;2022-07-24T11:52:13;4.80;;;4.25;;
8100;SDS011;4093;53.470;9.832;2022-07-24T11:54:42;5.53;;;5.03;;
8100;SDS011;4093;53.470;9.832;2022-07-24T11:57:15;5.30;;;4.72;;
8100;SDS011;4093;53.470;9.832;2022-07-24T11:59:43;5.28;;;4.78;;
8100;SDS011;4093;53.470;9.832;2022-07-24T12:02:10;5.32;;;4.80;;
8100;SDS011;4093;53.470;9.832;2022-07-24T12:04:37;4.95;;;4.45;;
8100;SDS011;4093;53.470;9.832;2022-07-24T12:07:05;4.72;;;4.32;;
8100;SDS011;4093;53.470;9.832;2022-07-24T12:09:32;5.07;;;4.55;;
8100;SDS011;4093;53.470;9.832;2022-07-24T12:12:18;5.82;;;5.22;;
8100;SDS011;4093;53.470;9.832;2022-07-24T12:14:50;5.45;;;4.65;;
8100;SDS011;4093;53.470;9.832;2022-07-24T12:17:17;5.25;;;4.47;;
8100;SDS011;4093;53.470;9.832;2022-07-24T12:19:54;5.10;;;4.60;;
8100;SDS011;4093;53.470;9.832;2022-07-24T12:22:22;4.90;;;4.50;;
8100;SDS011;4093;53.470;9.832;2022-07-24T12:24:49;5.00;;;4.57;;
8100;SDS011;4093;53.470;9.832;2022-07-24T12:30:15;5.72;;;5.07;;
8100;SDS011;4093;53.470;9.832;2022-07-24T12:33:00;5.40;;;4.70;;
8100;SDS011;4093;53.470;9.832;2022-07-24T12:35:29;6.18;;;4.60;;
8100;SDS011;4093;53.470;9.832;2022-07-24T12:37:57;4.85;;;4.45;;
8100;SDS011;4093;53.470;9.832;2022-07-24T12:40:26;6.03;;;4.85;;
8100;SDS011;4093;53.470;9.832;2022-07-24T12:42:57;6.43;;;5.05;;
8100;SDS011;4093;53.470;9.832;2022-07-24T12:45:24;5.82;;;5.03;;
8100;SDS011;4093;53.470;9.832;2022-07-24T12:51:00;5.25;;;4.75;;
8100;SDS011;4093;53.470;9.832;2022-07-24T12:53:29;5.63;;;5.10;;
8100;SDS011;4093;53.470;9.832;2022-07-24T12:56:01;4.88;;;4.47;;
8100;SDS011;4093;53.470;9.832;2022-07-24T12:58:31;6.97;;;4.43;;
8100;SDS011;4093;53.470;9.832;2022-07-24T13:01:13;6.13;;;5.53;;
8100;SDS011;4093;53.470;9.832;2022-07-24T13:03:41;6.53;;;4.68;;
8100;SDS011;4093;53.470;9.832;2022-07-24T13:06:08;5.35;;;4.85;;
8100;SDS011;4093;53.470;9.832;2022-07-24T13:08:35;5.80;;;5.30;;
8100;SDS011;4093;53.470;9.832;2022-07-24T13:11:02;5.05;;;4.55;;
8100;SDS011;4093;53.470;9.832;2022-07-24T13:13:30;5.00;;;4.55;;
8100;SDS011;4093;53.470;9.832;2022-07-24T13:15:57;4.85;;;4.50;;
8100;SDS011;4093;53.470;9.832;2022-07-24T13:18:23;5.05;;;4.55;;
8100;SDS011;4093;53.470;9.832;2022-07-24T13:20:50;5.10;;;4.60;;
8100;SDS011;4093;53.470;9.832;2022-07-24T13:23:16;6.43;;;4.80;;
8100;SDS011;4093;53.470;9.832;2022-07-24T13:25:43;6.38;;;5.00;;
8100;SDS011;4093;53.470;9.832;2022-07-24T13:28:10;5.75;;;4.97;;
8100;SDS011;4093;53.470;9.832;2022-07-24T13:30:38;6.38;;;4.50;;
8100;SDS011;4093;53.470;9.832;2022-07-24T13:33:04;5.43;;;4.38;;
8100;SDS011;4093;53.470;9.832;2022-07-24T13:35:31;5.40;;;4.45;;
8100;SDS011;4093;53.470;9.832;2022-07-24T13:37:58;5.70;;;4.90;;
8100;SDS011;4093;53.470;9.832;2022-07-24T13:40:25;4.97;;;4.47;;
8100;SDS011;4093;53.470;9.832;2022-07-24T13:42:51;6.10;;;4.47;;
8100;SDS011;4093;53.470;9.832;2022-07-24T13:45:18;5.15;;;4.57;;
8100;SDS011;4093;53.470;9.832;2022-07-24T13:47:46;5.10;;;4.60;;
8100;SDS011;4093;53.470;9.832;2022-07-24T13:50:13;4.55;;;4.15;;
8100;SDS011;4093;53.470;9.832;2022-07-24T13:52:39;6.65;;;4.72;;
8100;SDS011;4093;53.470;9.832;2022-07-24T13:55:06;5.20;;;4.53;;
8100;SDS011;4093;53.470;9.832;2022-07-24T13:57:33;6.15;;;4.43;;
8100;SDS011;4093;53.470;9.832;2022-07-24T14:00:00;5.00;;;4.53;;
8100;SDS011;4093;53.470;9.832;2022-07-24T14:02:26;4.88;;;4.47;;
8100;SDS011;4093;53.470;9.832;2022-07-24T14:04:54;5.35;;;4.85;;
8100;SDS011;4093;53.470;9.832;2022-07-24T14:07:21;5.05;;;4.35;;
8100;SDS011;4093;53.470;9.832;2022-07-24T14:09:47;8.52;;;4.80;;
8100;SDS011;4093;53.470;9.832;2022-07-24T14:12:14;5.40;;;4.90;;
8100;SDS011;4093;53.470;9.832;2022-07-24T14:14:40;4.70;;;4.30;;
8100;SDS011;4093;53.470;9.832;2022-07-24T14:17:07;7.57;;;4.25;;
8100;SDS011;4093;53.470;9.832;2022-07-24T14:19:34;4.97;;;4.45;;
8100;SDS011;4093;53.470;9.832;2022-07-24T14:22:02;4.93;;;4.43;;
8100;SDS011;4093;53.470;9.832;2022-07-24T14:24:28;4.68;;;4.28;;
8100;SDS011;4093;53.470;9.832;2022-07-24T14:26:55;6.70;;;4.00;;
8100;SDS011;4093;53.470;9.832;2022-07-24T14:29:22;5.25;;;4.75;;
8100;SDS011;4093;53.470;9.832;2022-07-24T14:31:49;4.75;;;4.30;;
8100;SDS011;4093;53.470;9.832;2022-07-24T14:34:16;4.68;;;4.18;;
8100;SDS011;4093;53.470;9.832;2022-07-24T14:36:43;4.60;;;4.20;;
8100;SDS011;4093;53.470;9.832;2022-07-24T14:39:11;5.25;;;4.60;;
8100;SDS011;4093;53.470;9.832;2022-07-24T14:41:38;5.15;;;4.40;;
8100;SDS011;4093;53.470;9.832;2022-07-24T14:44:04;5.10;;;4.60;;
8100;SDS011;4093;53.470;9.832;2022-07-24T14:46:31;5.15;;;4.53;;
8100;SDS011;4093;53.470;9.832;2022-07-24T14:48:58;6.05;;;5.00;;
8100;SDS011;4093;53.470;9.832;2022-07-24T14:51:25;5.95;;;4.60;;
8100;SDS011;4093;53.470;9.832;2022-07-24T14:53:51;6.60;;;4.13;;
8100;SDS011;4093;53.470;9.832;2022-07-24T14:56:19;4.75;;;4.30;;
8100;SDS011;4093;53.470;9.832;2022-07-24T14:58:46;5.93;;;4.15;;
8100;SDS011;4093;53.470;9.832;2022-07-24T15:01:12;5.28;;;4.40;;
8100;SDS011;4093;53.470;9.832;2022-07-24T15:03:39;4.75;;;4.35;;
8100;SDS011;4093;53.470;9.832;2022-07-24T15:06:06;4.45;;;3.85;;
8100;SDS011;4093;53.470;9.832;2022-07-24T15:08:32;5.13;;;4.40;;
8100;SDS011;4093;53.470;9.832;2022-07-24T15:10:59;4.32;;;3.92;;
8100;SDS011;4093;53.470;9.832;2022-07-24T15:13:27;5.00;;;4.40;;
8100;SDS011;4093;53.470;9.832;2022-07-24T15:15:53;4.43;;;4.03;;
8100;SDS011;4093;53.470;9.832;2022-07-24T15:18:20;4.78;;;4.15;;
8100;SDS011;4093;53.470;9.832;2022-07-24T15:20:47;4.25;;;3.90;;
8100;SDS011;4093;53.470;9.832;2022-07-24T15:23:14;4.28;;;3.92;;
8100;SDS011;4093;53.470;9.832;2022-07-24T15:25:40;6.63;;;4.22;;
8100;SDS011;4093;53.470;9.832;2022-07-24T15:28:07;4.60;;;4.20;;
8100;SDS011;4093;53.470;9.832;2022-07-24T15:30:35;7.07;;;4.30;;